createdAt,value
2018-06-10T00:00:39.468Z,22.62
2018-06-10T00:01:39.248Z,22.55
2018-06-10T00:02:39.251Z,22.54
2018-06-10T00:03:39.658Z,22.53
2018-06-10T00:04:39.608Z,22.54
2018-06-10T00:05:39.631Z,22.62
2018-06-10T00:06:40.362Z,22.59
2018-06-10T00:07:39.452Z,22.60
2018-06-10T00:08:39.382Z,22.57
2018-06-10T00:09:39.777Z,22.53
2018-06-10T00:10:40.272Z,22.51
2018-06-10T00:11:39.385Z,22.50
2018-06-10T00:12:39.447Z,22.36
2018-06-10T00:13:39.324Z,22.44
2018-06-10T00:14:39.705Z,22.38
2018-06-10T00:15:39.762Z,22.38
2018-06-10T00:16:39.631Z,22.30
2018-06-10T00:17:40.241Z,22.28
2018-06-10T00:18:40.258Z,22.32
2018-06-10T00:19:39.339Z,22.30
2018-06-10T00:20:39.817Z,22.29
2018-06-10T00:21:39.391Z,22.22
2018-06-10T00:22:39.576Z,22.26
2018-06-10T00:23:39.342Z,22.28
2018-06-10T00:24:39.364Z,22.20
2018-06-10T00:25:40.508Z,22.23
2018-06-10T00:26:39.356Z,22.18
2018-06-10T00:27:39.361Z,22.18
2018-06-10T00:28:39.375Z,22.20
2018-06-10T00:29:40.233Z,22.26
2018-06-10T00:30:39.378Z,22.25
2018-06-10T00:31:39.377Z,22.23
2018-06-10T00:32:39.382Z,22.18
2018-06-10T00:33:39.392Z,22.23
2018-06-10T00:34:39.390Z,22.17
2018-06-10T00:35:39.393Z,22.20
2018-06-10T00:36:39.402Z,22.15
2018-06-10T00:37:39.406Z,22.18
2018-06-10T00:38:39.412Z,22.02
2018-06-10T00:39:39.438Z,22.08
2018-06-10T00:40:39.415Z,21.99
2018-06-10T00:41:41.055Z,22.06
2018-06-10T00:42:40.323Z,21.95
2018-06-10T00:43:39.999Z,21.96
2018-06-10T00:44:39.636Z,21.95
2018-06-10T00:45:40.254Z,21.93
2018-06-10T00:46:39.440Z,21.92
2018-06-10T00:47:39.444Z,21.89
2018-06-10T00:48:39.453Z,21.88
2018-06-10T00:49:39.521Z,21.77
2018-06-10T00:50:39.457Z,21.82
2018-06-10T00:51:39.467Z,21.88
2018-06-10T00:52:39.463Z,21.83
2018-06-10T00:53:39.468Z,21.73
2018-06-10T00:54:39.477Z,21.75
2018-06-10T00:55:39.493Z,21.83
2018-06-10T00:56:39.478Z,21.83
2018-06-10T00:57:39.483Z,21.80
2018-06-10T00:58:40.406Z,21.82
2018-06-10T00:59:39.491Z,21.82
2018-06-10T01:00:39.495Z,21.82
2018-06-10T01:01:39.500Z,21.93
2018-06-10T01:02:39.509Z,21.89
2018-06-10T01:03:39.509Z,21.83
2018-06-10T01:04:39.514Z,21.88
2018-06-10T01:05:39.516Z,21.85
2018-06-10T01:06:39.521Z,21.85
2018-06-10T01:07:39.527Z,21.83
2018-06-10T01:08:39.528Z,21.76
2018-06-10T01:09:39.532Z,21.77
2018-06-10T01:10:39.537Z,21.73
2018-06-10T01:11:39.538Z,21.64
2018-06-10T01:12:39.544Z,21.66
2018-06-10T01:13:39.550Z,21.66
2018-06-10T01:14:39.555Z,21.55
2018-06-10T01:15:39.557Z,21.60
2018-06-10T01:16:39.561Z,21.60
2018-06-10T01:17:39.567Z,21.54
2018-06-10T01:18:39.568Z,21.46
2018-06-10T01:19:39.571Z,21.43
2018-06-10T01:20:39.577Z,21.48
2018-06-10T01:21:39.582Z,21.45
2018-06-10T01:22:39.584Z,21.37
2018-06-10T01:23:39.592Z,21.33
2018-06-10T01:24:39.595Z,21.32
2018-06-10T01:25:39.596Z,21.32
2018-06-10T01:26:39.601Z,21.33
2018-06-10T01:27:39.604Z,21.33
2018-06-10T01:28:39.608Z,21.36
2018-06-10T01:29:39.616Z,21.33
2018-06-10T01:30:39.617Z,21.39
2018-06-10T01:31:39.620Z,21.32
2018-06-10T01:32:39.667Z,21.30
2018-06-10T01:33:39.630Z,21.39
2018-06-10T01:34:39.633Z,21.35
2018-06-10T01:35:39.724Z,21.36
2018-06-10T01:36:39.684Z,21.32
2018-06-10T01:37:39.648Z,21.36
2018-06-10T01:38:39.648Z,21.25
2018-06-10T01:39:39.657Z,21.32
2018-06-10T01:40:39.656Z,21.33
2018-06-10T01:41:39.660Z,21.39
2018-06-10T01:42:39.664Z,21.35
2018-06-10T01:43:39.671Z,21.35
2018-06-10T01:44:39.672Z,21.29
2018-06-10T01:45:39.717Z,21.35
2018-06-10T01:46:39.680Z,21.30
2018-06-10T01:47:39.682Z,21.25
2018-06-10T01:48:39.687Z,21.27
2018-06-10T01:49:39.691Z,21.25
2018-06-10T01:50:39.726Z,21.22
2018-06-10T01:51:39.702Z,21.29
2018-06-10T01:52:39.702Z,21.27
2018-06-10T01:53:39.706Z,21.29
2018-06-10T01:54:39.709Z,21.35
2018-06-10T01:55:39.716Z,21.29
2018-06-10T01:56:39.740Z,21.32
2018-06-10T01:57:39.723Z,21.33
2018-06-10T01:58:39.726Z,21.32
2018-06-10T01:59:39.738Z,21.36
2018-06-10T02:00:39.769Z,21.36
2018-06-10T02:01:39.737Z,21.37
2018-06-10T02:02:39.742Z,21.48
2018-06-10T02:03:39.758Z,21.51
2018-06-10T02:04:39.756Z,21.50
2018-06-10T02:05:39.867Z,21.39
2018-06-10T02:06:39.757Z,21.45
2018-06-10T02:07:39.761Z,21.39
2018-06-10T02:08:39.764Z,21.36
2018-06-10T02:09:39.767Z,21.45
2018-06-10T02:10:39.772Z,21.42
2018-06-10T02:11:39.775Z,21.45
2018-06-10T02:12:39.779Z,21.32
2018-06-10T02:13:39.784Z,21.32
2018-06-10T02:14:39.788Z,21.33
2018-06-10T02:15:39.793Z,21.37
2018-06-10T02:16:39.853Z,21.36
2018-06-10T02:17:40.336Z,21.27
2018-06-10T02:18:39.805Z,21.25
2018-06-10T02:19:39.812Z,21.30
2018-06-10T02:20:39.810Z,21.30
2018-06-10T02:21:39.816Z,21.25
2018-06-10T02:22:39.820Z,21.21
2018-06-10T02:23:39.833Z,21.22
2018-06-10T02:24:39.828Z,21.25
2018-06-10T02:25:39.836Z,21.24
2018-06-10T02:26:39.835Z,21.22
2018-06-10T02:27:39.841Z,21.15
2018-06-10T02:28:39.842Z,21.22
2018-06-10T02:29:39.845Z,21.21
2018-06-10T02:30:39.851Z,21.21
2018-06-10T02:31:39.854Z,21.22
2018-06-10T02:32:39.857Z,21.21
2018-06-10T02:33:39.863Z,21.25
2018-06-10T02:34:39.867Z,21.22
2018-06-10T02:35:39.868Z,21.22
2018-06-10T02:36:39.872Z,21.21
2018-06-10T02:37:39.876Z,21.20
2018-06-10T02:38:39.881Z,21.20
2018-06-10T02:39:39.884Z,21.18
2018-06-10T02:40:39.888Z,21.17
2018-06-10T02:41:39.891Z,21.14
2018-06-10T02:42:39.898Z,21.18
2018-06-10T02:43:39.899Z,21.17
2018-06-10T02:44:39.903Z,21.14
2018-06-10T02:45:39.908Z,21.18
2018-06-10T02:46:39.912Z,21.20
2018-06-10T02:47:39.914Z,21.20
2018-06-10T02:48:39.918Z,21.22
2018-06-10T02:49:39.921Z,21.20
2018-06-10T02:50:39.926Z,21.17
2018-06-10T02:51:39.930Z,21.20
2018-06-10T02:52:39.943Z,21.21
2018-06-10T02:53:39.939Z,21.14
2018-06-10T02:54:39.949Z,21.20
2018-06-10T02:55:39.944Z,21.22
2018-06-10T02:56:39.947Z,21.18
2018-06-10T02:57:39.954Z,21.12
2018-06-10T02:58:39.957Z,21.15
2018-06-10T02:59:39.965Z,21.15
2018-06-10T03:00:39.965Z,21.20
2018-06-10T03:01:39.967Z,21.14
2018-06-10T03:02:39.972Z,21.09
2018-06-10T03:03:39.981Z,21.06
2018-06-10T03:04:39.978Z,21.09
2018-06-10T03:05:39.984Z,21.24
2018-06-10T03:06:39.987Z,21.06
2018-06-10T03:07:39.991Z,21.11
2018-06-10T03:08:39.993Z,21.14
2018-06-10T03:09:39.998Z,21.22
2018-06-10T03:10:40.003Z,21.02
2018-06-10T03:11:40.006Z,21.06
2018-06-10T03:12:40.009Z,20.99
2018-06-10T03:13:40.016Z,21.18
2018-06-10T03:14:40.018Z,21.09
2018-06-10T03:15:40.020Z,21.02
2018-06-10T03:16:40.026Z,21.05
2018-06-10T03:17:40.027Z,21.03
2018-06-10T03:18:40.032Z,21.14
2018-06-10T03:19:40.034Z,21.06
2018-06-10T03:20:40.039Z,21.03
2018-06-10T03:21:40.043Z,21.14
2018-06-10T03:22:40.048Z,21.17
2018-06-10T03:23:40.048Z,21.11
2018-06-10T03:24:40.054Z,21.11
2018-06-10T03:25:40.060Z,21.05
2018-06-10T03:26:40.186Z,21.06
2018-06-10T03:27:40.064Z,21.05
2018-06-10T03:28:40.071Z,21.11
2018-06-10T03:29:40.072Z,21.14
2018-06-10T03:30:40.076Z,21.14
2018-06-10T03:31:40.085Z,21.20
2018-06-10T03:32:40.084Z,21.18
2018-06-10T03:33:40.087Z,21.14
2018-06-10T03:34:40.093Z,21.15
2018-06-10T03:35:40.093Z,21.14
2018-06-10T03:36:40.102Z,21.22
2018-06-10T03:37:40.101Z,21.21
2018-06-10T03:38:40.141Z,21.20
2018-06-10T03:39:40.112Z,21.24
2018-06-10T03:40:40.117Z,21.24
2018-06-10T03:41:40.118Z,21.24
2018-06-10T03:42:40.120Z,21.21
2018-06-10T03:43:40.127Z,21.25
2018-06-10T03:44:40.127Z,21.18
2018-06-10T03:45:40.132Z,21.25
2018-06-10T03:46:40.135Z,21.22
2018-06-10T03:47:40.138Z,21.21
2018-06-10T03:48:40.144Z,21.21
2018-06-10T03:49:40.148Z,21.30
2018-06-10T03:50:40.152Z,21.27
2018-06-10T03:51:40.196Z,21.21
2018-06-10T03:52:40.157Z,21.29
2018-06-10T03:53:40.160Z,21.24
2018-06-10T03:54:40.168Z,21.30
2018-06-10T03:55:40.172Z,21.24
2018-06-10T03:56:40.172Z,21.27
2018-06-10T03:57:40.177Z,21.25
2018-06-10T03:58:40.180Z,21.25
2018-06-10T03:59:40.183Z,21.27
2018-06-10T04:00:40.189Z,21.35
2018-06-10T04:01:40.192Z,21.37
2018-06-10T04:02:40.194Z,21.32
2018-06-10T04:03:40.197Z,21.39
2018-06-10T04:04:40.202Z,21.32
2018-06-10T04:05:40.205Z,21.36
2018-06-10T04:06:40.209Z,21.36
2018-06-10T04:07:40.212Z,21.33
2018-06-10T04:08:40.217Z,21.35
2018-06-10T04:09:40.222Z,21.33
2018-06-10T04:10:40.227Z,21.30
2018-06-10T04:11:40.227Z,21.39
2018-06-10T04:12:40.231Z,21.36
2018-06-10T04:13:40.235Z,21.33
2018-06-10T04:14:40.240Z,21.45
2018-06-10T04:15:40.242Z,21.33
2018-06-10T04:16:40.252Z,21.46
2018-06-10T04:17:40.251Z,21.43
2018-06-10T04:18:40.257Z,21.39
2018-06-10T04:19:40.259Z,21.36
2018-06-10T04:20:40.262Z,21.33
2018-06-10T04:21:40.265Z,21.33
2018-06-10T04:22:40.312Z,21.33
2018-06-10T04:23:40.277Z,21.32
2018-06-10T04:24:40.281Z,21.36
2018-06-10T04:25:40.280Z,21.32
2018-06-10T04:26:40.284Z,21.33
2018-06-10T04:27:40.289Z,21.43
2018-06-10T04:28:40.290Z,21.33
2018-06-10T04:29:40.300Z,21.37
2018-06-10T04:30:40.301Z,21.30
2018-06-10T04:31:40.302Z,21.40
2018-06-10T04:32:40.310Z,21.33
2018-06-10T04:33:40.311Z,21.40
2018-06-10T04:34:40.318Z,21.40
2018-06-10T04:35:40.320Z,21.50
2018-06-10T04:36:40.322Z,21.51
2018-06-10T04:37:40.326Z,21.50
2018-06-10T04:38:40.329Z,21.43
2018-06-10T04:39:40.333Z,21.48
2018-06-10T04:40:40.337Z,21.50
2018-06-10T04:41:40.341Z,21.46
2018-06-10T04:42:40.347Z,21.48
2018-06-10T04:43:40.347Z,21.43
2018-06-10T04:44:40.352Z,21.50
2018-06-10T04:45:40.356Z,21.46
2018-06-10T04:46:40.364Z,21.46
2018-06-10T04:47:40.363Z,21.46
2018-06-10T04:48:40.368Z,21.46
2018-06-10T04:49:40.372Z,21.46
2018-06-10T04:50:40.375Z,21.40
2018-06-10T04:51:40.380Z,21.48
2018-06-10T04:52:40.382Z,21.45
2018-06-10T04:53:40.388Z,21.48
2018-06-10T04:54:40.395Z,21.57
2018-06-10T04:55:40.395Z,21.52
2018-06-10T04:56:40.398Z,21.52
2018-06-10T04:57:40.401Z,21.58
2018-06-10T04:58:40.407Z,21.62
2018-06-10T04:59:40.409Z,21.52
2018-06-10T05:00:40.413Z,21.61
2018-06-10T05:01:40.418Z,21.64
2018-06-10T05:02:40.422Z,21.51
2018-06-10T05:03:40.424Z,21.67
2018-06-10T05:04:40.428Z,21.58
2018-06-10T05:05:40.552Z,21.54
2018-06-10T05:06:40.437Z,21.45
2018-06-10T05:07:40.447Z,21.52
2018-06-10T05:08:40.454Z,21.46
2018-06-10T05:09:40.447Z,21.57
2018-06-10T05:10:40.464Z,21.54
2018-06-10T05:11:40.459Z,21.54
2018-06-10T05:12:40.458Z,21.57
2018-06-10T05:13:40.466Z,21.54
2018-06-10T05:14:40.468Z,21.55
2018-06-10T05:15:40.473Z,21.61
2018-06-10T05:16:40.478Z,21.60
2018-06-10T05:17:40.478Z,21.61
2018-06-10T05:18:40.485Z,21.69
2018-06-10T05:19:40.556Z,21.61
2018-06-10T05:20:40.492Z,21.66
2018-06-10T05:21:40.493Z,21.60
2018-06-10T05:22:40.498Z,21.69
2018-06-10T05:23:40.504Z,21.66
2018-06-10T05:24:40.507Z,21.60
2018-06-10T05:25:40.509Z,21.72
2018-06-10T05:26:40.513Z,21.76
2018-06-10T05:27:40.519Z,21.73
2018-06-10T05:28:40.520Z,21.77
2018-06-10T05:29:40.524Z,21.77
2018-06-10T05:30:40.529Z,21.80
2018-06-10T05:31:40.532Z,21.85
2018-06-10T05:32:40.537Z,21.93
2018-06-10T05:33:40.556Z,21.85
2018-06-10T05:34:40.546Z,21.80
2018-06-10T05:35:40.549Z,21.91
2018-06-10T05:36:40.554Z,21.79
2018-06-10T05:37:40.557Z,21.79
2018-06-10T05:38:40.561Z,21.88
2018-06-10T05:39:40.565Z,21.88
2018-06-10T05:40:40.571Z,21.92
2018-06-10T05:41:40.574Z,21.96
2018-06-10T05:42:40.579Z,22.02
2018-06-10T05:43:40.579Z,21.99
2018-06-10T05:44:40.584Z,22.00
2018-06-10T05:45:40.588Z,21.96
2018-06-10T05:46:40.596Z,21.98
2018-06-10T05:47:40.603Z,21.98
2018-06-10T05:48:40.599Z,22.02
2018-06-10T05:49:40.605Z,22.00
2018-06-10T05:50:40.609Z,22.06
2018-06-10T05:51:40.613Z,22.06
2018-06-10T05:52:40.617Z,22.10
2018-06-10T05:53:40.627Z,22.08
2018-06-10T05:54:40.625Z,22.06
2018-06-10T05:55:40.628Z,22.14
2018-06-10T05:56:40.633Z,22.17
2018-06-10T05:57:40.637Z,22.17
2018-06-10T05:58:40.642Z,22.15
2018-06-10T05:59:40.645Z,22.20
2018-06-10T06:00:40.648Z,22.20
2018-06-10T06:01:40.655Z,22.15
2018-06-10T06:02:40.661Z,22.22
2018-06-10T06:03:40.661Z,22.26
2018-06-10T06:04:40.664Z,22.17
2018-06-10T06:05:40.670Z,22.18
2018-06-10T06:06:40.674Z,22.11
2018-06-10T06:07:40.678Z,22.08
2018-06-10T06:08:40.683Z,22.18
2018-06-10T06:09:40.686Z,22.28
2018-06-10T06:10:40.689Z,22.18
2018-06-10T06:11:40.695Z,22.26
2018-06-10T06:12:40.701Z,22.20
2018-06-10T06:13:40.702Z,22.26
2018-06-10T06:14:40.707Z,22.28
2018-06-10T06:15:40.710Z,22.25
2018-06-10T06:16:40.716Z,22.30
2018-06-10T06:17:40.719Z,22.35
2018-06-10T06:18:40.726Z,22.32
2018-06-10T06:19:40.727Z,22.32
2018-06-10T06:20:40.772Z,22.39
2018-06-10T06:21:40.735Z,22.39
2018-06-10T06:22:40.755Z,22.47
2018-06-10T06:23:40.742Z,22.38
2018-06-10T06:24:40.749Z,22.43
2018-06-10T06:25:40.754Z,22.51
2018-06-10T06:26:40.756Z,22.51
2018-06-10T06:27:40.760Z,22.59
2018-06-10T06:28:40.765Z,22.50
2018-06-10T06:29:40.770Z,22.62
2018-06-10T06:30:40.774Z,22.59
2018-06-10T06:31:40.777Z,22.55
2018-06-10T06:32:40.782Z,22.59
2018-06-10T06:33:40.787Z,22.65
2018-06-10T06:34:40.793Z,22.60
2018-06-10T06:35:40.794Z,22.68
2018-06-10T06:36:40.800Z,22.60
2018-06-10T06:37:40.805Z,22.69
2018-06-10T06:38:40.808Z,22.69
2018-06-10T06:39:40.812Z,22.76
2018-06-10T06:40:40.819Z,22.75
2018-06-10T06:41:40.822Z,22.70
2018-06-10T06:42:40.825Z,22.69
2018-06-10T06:43:40.830Z,22.76
2018-06-10T06:44:40.836Z,22.73
2018-06-10T06:45:40.838Z,22.85
2018-06-10T06:46:40.844Z,22.85
2018-06-10T06:47:40.846Z,22.87
2018-06-10T06:48:40.855Z,22.87
2018-06-10T06:49:40.857Z,22.88
2018-06-10T06:50:40.862Z,22.90
2018-06-10T06:51:40.865Z,22.99
2018-06-10T06:52:40.926Z,22.96
2018-06-10T06:53:40.875Z,23.02
2018-06-10T06:54:40.878Z,22.99
2018-06-10T06:55:40.891Z,22.99
2018-06-10T06:56:40.890Z,23.08
2018-06-10T06:57:40.895Z,23.02
2018-06-10T06:58:40.904Z,22.93
2018-06-10T06:59:40.903Z,23.12
2018-06-10T07:00:40.905Z,23.08
2018-06-10T07:01:40.910Z,22.99
2018-06-10T07:02:40.916Z,23.15
2018-06-10T07:03:40.919Z,23.12
2018-06-10T07:04:40.924Z,23.09
2018-06-10T07:05:40.940Z,23.15
2018-06-10T07:06:40.936Z,23.12
2018-06-10T07:07:40.936Z,23.17
2018-06-10T07:08:40.946Z,23.17
2018-06-10T07:09:40.949Z,23.12
2018-06-10T07:10:40.950Z,23.23
2018-06-10T07:11:40.956Z,23.25
2018-06-10T07:12:40.960Z,23.21
2018-06-10T07:13:40.967Z,23.31
2018-06-10T07:14:40.970Z,23.28
2018-06-10T07:15:40.972Z,23.32
2018-06-10T07:16:40.977Z,23.28
2018-06-10T07:17:40.982Z,23.20
2018-06-10T07:18:40.989Z,23.28
2018-06-10T07:19:40.991Z,23.31
2018-06-10T07:20:41.000Z,23.31
2018-06-10T07:21:41.002Z,23.37
2018-06-10T07:22:41.011Z,23.34
2018-06-10T07:23:41.012Z,23.40
2018-06-10T07:24:41.028Z,23.37
2018-06-10T07:25:41.022Z,23.39
2018-06-10T07:26:41.024Z,23.39
2018-06-10T07:27:41.029Z,23.37
2018-06-10T07:28:41.033Z,23.31
2018-06-10T07:29:41.040Z,23.39
2018-06-10T07:30:41.043Z,23.47
2018-06-10T07:31:41.047Z,23.47
2018-06-10T07:32:41.052Z,23.47
2018-06-10T07:33:41.059Z,23.44
2018-06-10T07:34:41.063Z,23.48
2018-06-10T07:35:41.069Z,23.47
2018-06-10T07:36:41.072Z,23.48
2018-06-10T07:37:41.076Z,23.41
2018-06-10T07:38:41.081Z,23.44
2018-06-10T07:39:41.084Z,23.39
2018-06-10T07:40:41.175Z,23.40
2018-06-10T07:41:41.096Z,23.46
2018-06-10T07:42:41.100Z,23.46
2018-06-10T07:43:41.103Z,23.48
2018-06-10T07:44:41.109Z,23.51
2018-06-10T07:45:41.117Z,23.56
2018-06-10T07:46:41.119Z,23.54
2018-06-10T07:47:41.124Z,23.58
2018-06-10T07:48:41.132Z,23.54
2018-06-10T07:49:41.132Z,23.54
2018-06-10T07:50:41.139Z,23.51
2018-06-10T07:51:41.141Z,23.54
2018-06-10T07:52:41.145Z,23.50
2018-06-10T07:53:41.150Z,23.58
2018-06-10T07:54:41.155Z,23.51
2018-06-10T07:55:41.158Z,23.55
2018-06-10T07:56:41.164Z,23.50
2018-06-10T07:57:41.170Z,23.54
2018-06-10T07:58:41.177Z,23.56
2018-06-10T07:59:41.178Z,23.55
2018-06-10T08:00:41.182Z,23.56
2018-06-10T08:01:41.188Z,23.66
2018-06-10T08:02:41.192Z,23.59
2018-06-10T08:03:41.201Z,23.61
2018-06-10T08:04:41.200Z,23.56
2018-06-10T08:05:41.207Z,23.58
2018-06-10T08:06:41.211Z,23.55
2018-06-10T08:07:41.216Z,23.54
2018-06-10T08:08:41.259Z,23.61
2018-06-10T08:09:41.225Z,23.50
2018-06-10T08:10:41.231Z,23.54
2018-06-10T08:11:41.236Z,23.55
2018-06-10T08:12:41.240Z,23.58
2018-06-10T08:13:41.244Z,23.54
2018-06-10T08:14:41.249Z,23.54
2018-06-10T08:15:41.252Z,23.54
2018-06-10T08:16:41.258Z,23.50
2018-06-10T08:17:41.270Z,23.54
2018-06-10T08:18:41.318Z,23.54
2018-06-10T08:19:41.272Z,23.51
2018-06-10T08:20:41.280Z,23.54
2018-06-10T08:21:41.282Z,23.48
2018-06-10T08:22:41.287Z,23.39
2018-06-10T08:23:41.292Z,23.48
2018-06-10T08:24:41.295Z,23.41
2018-06-10T08:25:41.301Z,23.46
2018-06-10T08:26:41.308Z,23.41
2018-06-10T08:27:41.323Z,23.37
2018-06-10T08:28:41.314Z,23.39
2018-06-10T08:29:41.320Z,23.34
2018-06-10T08:30:41.324Z,23.37
2018-06-10T08:31:41.328Z,23.39
2018-06-10T08:32:41.332Z,23.41
2018-06-10T08:33:41.338Z,23.34
2018-06-10T08:34:41.351Z,23.39
2018-06-10T08:35:41.347Z,23.40
2018-06-10T08:36:41.356Z,23.32
2018-06-10T08:37:41.381Z,23.39
2018-06-10T08:38:41.366Z,23.39
2018-06-10T08:39:41.366Z,23.32
2018-06-10T08:40:41.369Z,23.37
2018-06-10T08:41:41.374Z,23.37
2018-06-10T08:42:41.379Z,23.37
2018-06-10T08:43:41.384Z,23.41
2018-06-10T08:44:41.388Z,23.36
2018-06-10T08:45:41.393Z,23.36
2018-06-10T08:46:41.400Z,23.37
2018-06-10T08:47:41.401Z,23.39
2018-06-10T08:48:41.798Z,23.46
2018-06-10T08:49:41.412Z,23.47
2018-06-10T08:50:41.416Z,23.50
2018-06-10T08:51:41.420Z,23.48
2018-06-10T08:52:41.426Z,23.54
2018-06-10T08:53:41.430Z,23.61
2018-06-10T08:54:41.441Z,23.71
2018-06-10T08:55:41.442Z,23.74
2018-06-10T08:56:41.446Z,23.71
2018-06-10T08:57:41.451Z,23.71
2018-06-10T08:58:41.457Z,23.88
2018-06-10T08:59:41.491Z,23.83
2018-06-10T09:00:41.463Z,23.88
2018-06-10T09:01:41.469Z,23.88
2018-06-10T09:02:41.497Z,23.83
2018-06-10T09:03:41.477Z,23.95
2018-06-10T09:04:41.485Z,23.88
2018-06-10T09:05:41.489Z,23.93
2018-06-10T09:06:41.492Z,23.99
2018-06-10T09:07:41.499Z,24.01
2018-06-10T09:08:41.539Z,24.02
2018-06-10T09:09:41.521Z,24.05
2018-06-10T09:10:41.512Z,24.11
2018-06-10T09:11:41.518Z,24.05
2018-06-10T09:12:41.529Z,24.16
2018-06-10T09:13:41.535Z,24.18
2018-06-10T09:14:41.614Z,24.08
2018-06-10T09:15:41.561Z,24.11
2018-06-10T09:16:41.540Z,24.16
2018-06-10T09:17:41.545Z,24.18
2018-06-10T09:18:41.551Z,24.14
2018-06-10T09:19:41.555Z,24.14
2018-06-10T09:20:41.563Z,24.16
2018-06-10T09:21:41.566Z,24.16
2018-06-10T09:22:41.571Z,24.16
2018-06-10T09:23:41.574Z,24.18
2018-06-10T09:24:41.580Z,24.23
2018-06-10T09:25:41.590Z,24.13
2018-06-10T09:26:41.591Z,24.26
2018-06-10T09:27:41.595Z,24.28
2018-06-10T09:28:41.644Z,24.30
2018-06-10T09:29:41.607Z,24.33
2018-06-10T09:30:41.611Z,24.39
2018-06-10T09:31:41.615Z,24.45
2018-06-10T09:32:41.624Z,24.50
2018-06-10T09:33:41.626Z,24.48
2018-06-10T09:34:41.632Z,24.53
2018-06-10T09:35:41.645Z,24.60
2018-06-10T09:36:41.644Z,24.65
2018-06-10T09:37:41.646Z,24.61
2018-06-10T09:38:41.653Z,24.65
2018-06-10T09:39:41.663Z,24.81
2018-06-10T09:40:41.666Z,24.77
2018-06-10T09:41:41.669Z,24.77
2018-06-10T09:42:41.673Z,24.74
2018-06-10T09:43:41.678Z,24.91
2018-06-10T09:44:41.683Z,24.89
2018-06-10T09:45:41.689Z,24.93
2018-06-10T09:46:41.693Z,25.06
2018-06-10T09:47:41.698Z,24.98
2018-06-10T09:48:41.704Z,24.99
2018-06-10T09:49:41.715Z,24.91
2018-06-10T09:50:41.716Z,25.03
2018-06-10T09:51:41.719Z,24.89
2018-06-10T09:52:41.725Z,24.99
2018-06-10T09:53:41.730Z,24.98
2018-06-10T09:54:41.736Z,24.88
2018-06-10T09:55:41.827Z,24.93
2018-06-10T09:56:41.749Z,24.89
2018-06-10T09:57:41.751Z,24.93
2018-06-10T09:58:41.757Z,24.92
2018-06-10T09:59:41.762Z,24.91
2018-06-10T10:00:41.769Z,24.89
2018-06-10T10:01:41.774Z,24.86
2018-06-10T10:02:41.780Z,24.86
2018-06-10T10:03:41.784Z,24.99
2018-06-10T10:04:41.789Z,25.04
2018-06-10T10:05:41.794Z,24.99
2018-06-10T10:06:41.801Z,25.14
2018-06-10T10:07:41.806Z,25.18
2018-06-10T10:08:41.845Z,25.13
2018-06-10T10:09:41.816Z,25.18
2018-06-10T10:10:41.824Z,25.21
2018-06-10T10:11:41.829Z,25.18
2018-06-10T10:12:41.836Z,25.17
2018-06-10T10:13:41.841Z,25.10
2018-06-10T10:14:41.886Z,25.22
2018-06-10T10:15:41.850Z,25.16
2018-06-10T10:16:41.863Z,25.22
2018-06-10T10:17:41.880Z,25.18
2018-06-10T10:18:41.865Z,25.17
2018-06-10T10:19:41.871Z,25.22
2018-06-10T10:20:41.877Z,25.21
2018-06-10T10:21:41.881Z,25.22
2018-06-10T10:22:41.887Z,25.18
2018-06-10T10:23:41.894Z,25.18
2018-06-10T10:24:41.900Z,25.14
2018-06-10T10:25:41.907Z,25.07
2018-06-10T10:26:41.909Z,25.16
2018-06-10T10:27:41.919Z,25.06
2018-06-10T10:28:41.920Z,25.14
2018-06-10T10:29:41.925Z,25.07
2018-06-10T10:30:41.931Z,25.10
2018-06-10T10:31:41.935Z,25.01
2018-06-10T10:32:41.941Z,25.11
2018-06-10T10:33:41.955Z,25.08
2018-06-10T10:34:41.953Z,25.08
2018-06-10T10:35:41.957Z,25.08
2018-06-10T10:36:41.962Z,25.25
2018-06-10T10:37:41.969Z,25.28
2018-06-10T10:38:41.975Z,25.31
2018-06-10T10:39:41.978Z,25.41
2018-06-10T10:40:42.030Z,25.51
2018-06-10T10:41:42.061Z,25.40
2018-06-10T10:42:41.996Z,25.51
2018-06-10T10:43:42.000Z,25.41
2018-06-10T10:44:42.007Z,25.53
2018-06-10T10:45:42.013Z,25.62
2018-06-10T10:46:42.018Z,25.66
2018-06-10T10:47:42.025Z,25.62
2018-06-10T10:48:42.029Z,25.66
2018-06-10T10:49:42.036Z,25.83
2018-06-10T10:50:42.045Z,26.02
2018-06-10T10:51:42.045Z,26.26
2018-06-10T10:52:42.058Z,26.70
2018-06-10T10:53:42.067Z,26.99
2018-06-10T10:54:42.069Z,27.14
2018-06-10T10:55:42.070Z,27.68
2018-06-10T10:56:42.074Z,28.27
2018-06-10T10:57:42.081Z,28.56
2018-06-10T10:58:42.088Z,28.94
2018-06-10T10:59:42.093Z,29.12
2018-06-10T11:00:42.105Z,29.41
2018-06-10T11:01:42.113Z,29.72
2018-06-10T11:02:42.115Z,30.35
2018-06-10T11:03:42.122Z,31.07
2018-06-10T11:04:42.129Z,31.74
2018-06-10T11:05:42.148Z,32.11
2018-06-10T11:06:42.147Z,32.49
2018-06-10T11:07:42.153Z,32.65
2018-06-10T11:08:42.160Z,33.01
2018-06-10T11:09:42.171Z,33.36
2018-06-10T11:10:42.180Z,33.50
2018-06-10T11:11:42.187Z,33.81
2018-06-10T11:12:42.199Z,34.16
2018-06-10T11:13:42.207Z,34.29
2018-06-10T11:14:42.217Z,34.42
2018-06-10T11:15:42.226Z,34.90
2018-06-10T11:16:42.236Z,35.18
2018-06-10T11:17:42.247Z,35.31
2018-06-10T11:18:42.321Z,35.56
2018-06-10T11:19:42.269Z,35.90
2018-06-10T11:20:42.280Z,36.20
2018-06-10T11:21:42.291Z,35.88
2018-06-10T11:22:42.304Z,35.58
2018-06-10T11:23:42.312Z,35.82
2018-06-10T11:24:42.325Z,35.53
2018-06-10T11:25:42.340Z,35.66
2018-06-10T11:26:42.350Z,35.92
2018-06-10T11:27:42.360Z,36.35
2018-06-10T11:28:42.372Z,36.42
2018-06-10T11:29:42.391Z,36.42
2018-06-10T11:30:42.398Z,36.31
2018-06-10T11:31:42.417Z,36.61
2018-06-10T11:32:42.423Z,36.81
2018-06-10T11:33:42.434Z,37.02
2018-06-10T11:34:42.448Z,37.20
2018-06-10T11:35:42.460Z,37.44
2018-06-10T11:36:42.472Z,36.96
2018-06-10T11:37:42.503Z,37.30
2018-06-10T11:38:42.502Z,37.55
2018-06-10T11:39:42.516Z,37.84
2018-06-10T11:40:42.524Z,38.09
2018-06-10T11:41:42.538Z,38.19
2018-06-10T11:42:42.552Z,37.86
2018-06-10T11:43:42.575Z,37.67
2018-06-10T11:44:42.579Z,37.63
2018-06-10T11:45:42.592Z,37.64
2018-06-10T11:46:42.606Z,37.55
2018-06-10T11:47:42.620Z,37.15
2018-06-10T11:48:42.635Z,37.37
2018-06-10T11:49:42.647Z,37.64
2018-06-10T11:50:42.669Z,37.99
2018-06-10T11:51:42.674Z,38.21
2018-06-10T11:52:42.687Z,38.15
2018-06-10T11:53:42.713Z,38.08
2018-06-10T11:54:42.715Z,38.48
2018-06-10T11:55:42.729Z,38.73
2018-06-10T11:56:42.742Z,38.65
2018-06-10T11:57:42.756Z,38.12
2018-06-10T11:58:42.770Z,37.36
2018-06-10T11:59:42.783Z,36.70
2018-06-10T12:00:42.800Z,36.20
2018-06-10T12:01:42.811Z,35.68
2018-06-10T12:02:42.826Z,35.12
2018-06-10T12:03:42.868Z,34.89
2018-06-10T12:04:42.850Z,34.42
2018-06-10T12:05:42.863Z,34.20
2018-06-10T12:06:42.878Z,33.90
2018-06-10T12:07:42.886Z,33.84
2018-06-10T12:08:42.901Z,33.92
2018-06-10T12:09:42.924Z,34.40
2018-06-10T12:10:42.930Z,34.90
2018-06-10T12:11:42.934Z,35.11
2018-06-10T12:12:42.953Z,35.67
2018-06-10T12:13:43.014Z,35.85
2018-06-10T12:14:42.975Z,36.36
2018-06-10T12:15:42.979Z,36.70
2018-06-10T12:16:43.127Z,37.40
2018-06-10T12:17:43.003Z,37.99
2018-06-10T12:18:43.016Z,38.26
2018-06-10T12:19:43.032Z,38.42
2018-06-10T12:20:43.040Z,38.39
2018-06-10T12:21:43.055Z,37.68
2018-06-10T12:22:43.081Z,36.98
2018-06-10T12:23:43.079Z,37.35
2018-06-10T12:24:43.091Z,37.92
2018-06-10T12:25:43.107Z,38.12
2018-06-10T12:26:43.129Z,38.48
2018-06-10T12:27:43.129Z,38.68
2018-06-10T12:28:43.143Z,38.89
2018-06-10T12:29:43.157Z,39.21
2018-06-10T12:30:43.169Z,39.41
2018-06-10T12:31:43.187Z,39.55
2018-06-10T12:32:43.198Z,39.72
2018-06-10T12:33:43.211Z,39.60
2018-06-10T12:34:43.227Z,39.71
2018-06-10T12:35:43.243Z,39.72
2018-06-10T12:36:43.255Z,39.78
2018-06-10T12:37:43.274Z,39.75
2018-06-10T12:38:43.287Z,39.77
2018-06-10T12:39:43.298Z,39.80
2018-06-10T12:40:43.314Z,39.99
2018-06-10T12:41:43.328Z,39.99
2018-06-10T12:42:43.349Z,40.31
2018-06-10T12:43:43.358Z,40.88
2018-06-10T12:44:43.374Z,41.03
2018-06-10T12:45:43.389Z,41.19
2018-06-10T12:46:43.408Z,41.22
2018-06-10T12:47:43.420Z,41.29
2018-06-10T12:48:43.435Z,41.36
2018-06-10T12:49:43.450Z,41.63
2018-06-10T12:50:43.468Z,41.78
2018-06-10T12:51:43.482Z,41.41
2018-06-10T12:52:43.503Z,41.18